首页
METAR-TAF:

METAR-TAF

机场 :

努瓦克肖特国际机场

努瓦克肖特, 毛里塔尼亚

纬度: 18-18-36N, 经度: 015-58-11W, 海拔: 3米

当前天气观测

该预报发布于56分钟前的10:30 UTC
风速9节,风向东转东北
温度 20°C
湿度 24%
气压 1015 hPa
能見度: 8000

METAR: GQNO 241030Z 07009KT 8000 NSC 20/M01 Q1015 NOSIG

时间: 11:26 (11:26 UTC)

预报

该预报发布于6小时和26分钟前的05:00 UTC
预报有效从24日的 06点(UTC)到 25日的 12点(UTC)
风速8节,风向北转东北
能見度: 8000
成为
从 24日的 10点(UTC)到 24日的 12点(UTC)
风速8节,风向
成为
从 24日的 16点(UTC)到 24日的 18点(UTC)
风速6节,风向
成为
从 25日的 08点(UTC)到 25日的 11点(UTC)
风速8节,风向东北

TAF: GQNO 240500Z 2406/2512 02008KT 8000 NSC BECMG 2410/2412 08008KT BECMG 2416/2418 35006KT BECMG 2508/2511 05008KT

超过4000个机场的气象观测和天气预报(METAR&TAF报告)。

可查询的气象台以黄色和红色小点在地图上表示。

将鼠标移到小点上方,可查看气象台名称。

然后点击查看天气观测和预报。

如需切换地图:点击带黑十字的绿色按钮放大地图;点击带横线的绿色按钮缩小地图;或者点击绿色箭头查看邻近地区的地图。


METAR-TAF: